Flight Track Log - Related Links

Times and Time Zones

All times are in EDT time to prevent confusion due to time zone crossing. See the FDX130 flight status page for this flight to view local times or setup timezone preferences in your user account.

Time Position Orientation Groundspeed Altitude Reporting Facility
EDT Latitude Longitude Course Direction KTS MPH feet Rate Location/Type
Fri 04:52:36 AM 35.0167 -89.9667 151° Southeast 170 196 1,000  Level KMEM
Fri 04:53:42 AM 34.9667 -89.9333 151° Southeast 222 255 2,500 1,714 Climbing KMEM
Fri 04:54:42 AM 35.0000 -89.8667 59° Northeast 297 342 4,600 2,450 Climbing KMEM
Fri 04:55:42 AM 35.0667 -89.8000 39° Northeast 290 334 7,400 2,084 Climbing KMEM
Fri 04:57:29 AM 35.1744 -89.6942 39° Northeast 319 367 10,400 1,509 Climbing Memphis Center
Fri 04:58:29 AM 35.2514 -89.6172 39° Northeast 339 390 11,600 1,600 Climbing Memphis Center
Fri 04:59:29 AM 35.3361 -89.5297 40° Northeast 380 437 13,600 2,150 Climbing Memphis Center
Fri 05:00:29 AM 35.4192 -89.4450 40° Northeast 387 445 15,900 2,050 Climbing Memphis Center
Fri 05:01:29 AM 35.5019 -89.3572 41° Northeast 387 445 17,700 1,250 Climbing Memphis Center
Fri 05:02:29 AM 35.5864 -89.2389 49° Northeast 399 459 18,400 1,100 Climbing Memphis Center
Fri 05:03:29 AM 35.6708 -89.1331 45° Northeast 418 481 19,900 1,450 Climbing Memphis Center
Fri 05:04:29 AM 35.7428 -89.0372 47° Northeast 428 493 21,300 1,276 Climbing Memphis Center
Fri 05:09:31 AM 36.2020 -88.4380 47° Northeast 471 542 27,600 1,218 Climbing FlightAware ADS-B
Fri 05:10:04 AM 36.2520 -88.3730 46° Northeast 476 548 28,100 701 Climbing FlightAware ADS-B
Fri 05:10:48 AM 36.3160 -88.2900 46° Northeast 476 548 28,500 889 Climbing FlightAware ADS-B
Fri 05:11:25 AM 36.3600 -88.2290 48° Northeast 477 549 29,300 1,167 Climbing FlightAware ADS-B
Fri 05:12:00 AM 36.4300 -88.1370 47° Northeast 483 556 29,900 1,014 Climbing FlightAware ADS-B
Fri 05:12:36 AM 36.4850 -88.0640 47° Northeast 481 554 30,500 1,000 Climbing FlightAware ADS-B
Fri 05:13:00 AM 36.5200 -88.0150 48° Northeast 482 555 30,900 871 Climbing FlightAware ADS-B
Fri 05:13:38 AM 36.5790 -87.9370 47° Northeast 483 556 31,400 892 Climbing FlightAware ADS-B
Fri 05:14:14 AM 36.6340 -87.8640 47° Northeast 483 556 32,000 833 Climbing FlightAware ADS-B
Fri 05:14:50 AM 36.6870 -87.7910 48° Northeast 483 556 32,400 794 Climbing FlightAware ADS-B
Fri 05:15:22 AM 36.7350 -87.7270 47° Northeast 481 554 32,900 1,000 Climbing FlightAware ADS-B
Fri 05:15:56 AM 36.7850 -87.6600 47° Northeast 476 548 33,500 1,250 Climbing FlightAware ADS-B
Fri 05:16:34 AM 36.8400 -87.5860 47° Northeast 465 535 34,400 1,200 Climbing FlightAware ADS-B
Fri 05:17:06 AM 36.8890 -87.5170 48° Northeast 461 531 34,900 514 Climbing FlightAware ADS-B
Fri 05:17:44 AM 36.9420 -87.4460 47° Northeast 466 536 35,000 81 Climbing FlightAware ADS-B
Fri 05:18:20 AM 36.9970 -87.3700 48° Northeast 468 539 35,000  Level FlightAware ADS-B
Fri 05:18:52 AM 37.0430 -87.3090 47° Northeast 468 539 35,000  Level FlightAware ADS-B
Fri 05:19:28 AM 37.0960 -87.2360 48° Northeast 469 540 35,000  Level FlightAware ADS-B
Fri 05:20:04 AM 37.1460 -87.1660 48° Northeast 469 540 35,000  Level FlightAware ADS-B
Fri 05:20:11 AM 37.1605 -87.1480 45° Northeast 470 541 35,000  Level FlightAware ADS-B
Fri 05:20:41 AM 37.2047 -87.0875 47° Northeast 472 543 35,000  Level FlightAware ADS-B
Fri 05:21:12 AM 37.2501 -87.0245 48° Northeast 472 543 35,000  Level FlightAware ADS-B
Fri 05:21:46 AM 37.2997 -86.9556 48° Northeast 474 545 35,000  Level FlightAware ADS-B
Fri 05:22:18 AM 37.3476 -86.8902 47° Northeast 474 545 35,000  Level FlightAware ADS-B
Fri 05:22:48 AM 37.3924 -86.8269 48° Northeast 475 547 35,000  Level FlightAware ADS-B
Fri 05:23:19 AM 37.4380 -86.7652 47° Northeast 476 548 35,000  Level FlightAware ADS-B
Fri 05:23:55 AM 37.4909 -86.6913 48° Northeast 477 549 35,000  Level FlightAware ADS-B
Fri 05:24:25 AM 37.5358 -86.6293 48° Northeast 478 550 35,000 97 Level FlightAware ADS-B
Fri 05:24:57 AM 37.5823 -86.5631 48° Northeast 477 549 35,100 94 Climbing FlightAware ADS-B
Fri 05:25:29 AM 37.6295 -86.4970 48° Northeast 478 550 35,100  Level FlightAware ADS-B
Fri 05:25:59 AM 37.6750 -86.4350 47° Northeast 477 549 35,100  Level FlightAware ADS-B
Fri 05:26:10 AM 37.6898 -86.4120 51° Northeast 477 549 35,100 -105 Level FlightAware ADS-B
Fri 05:26:56 AM 37.7587 -86.3166 48° Northeast 477 549 35,000 -63 Descending FlightAware ADS-B
Fri 05:27:46 AM 37.8317 -86.2122 48° Northeast 478 550 35,000  Level FlightAware ADS-B
Fri 05:28:27 AM 37.8920 -86.1270 48° Northeast 478 550 35,000  Level FlightAware ADS-B
Fri 05:28:37 AM 37.9070 -86.1058 48° Northeast 477 549 35,000  Level FlightAware ADS-B
Fri 05:29:33 AM 37.9893 -85.9890 48° Northeast 477 549 35,000  Level FlightAware ADS-B
Fri 05:30:12 AM 38.0460 -85.9100 48° Northeast 477 549 35,000  Level FlightAware ADS-B
Fri 05:30:46 AM 38.0960 -85.8360 49° Northeast 476 548 35,000  Level FlightAware ADS-B
Fri 05:31:24 AM 38.1510 -85.7570 48° Northeast 476 548 35,000  Level FlightAware ADS-B
Fri 05:31:56 AM 38.1980 -85.6920 47° Northeast 476 548 35,000  Level FlightAware ADS-B
Fri 05:32:32 AM 38.2510 -85.6140 49° Northeast 476 548 35,000  Level FlightAware ADS-B
Fri 05:33:08 AM 38.3030 -85.5380 49° Northeast 476 548 35,000  Level FlightAware ADS-B
Fri 05:33:40 AM 38.3510 -85.4710 48° Northeast 476 548 35,000  Level FlightAware ADS-B
Fri 05:34:18 AM 38.4060 -85.3900 49° Northeast 477 549 35,000  Level FlightAware ADS-B
Fri 05:34:53 AM 38.4570 -85.3160 49° Northeast 477 549 35,000  Level FlightAware ADS-B
Fri 05:35:29 AM 38.5100 -85.2400 48° Northeast 477 549 35,000  Level FlightAware ADS-B
Fri 05:36:02 AM 38.5560 -85.1720 49° Northeast 478 550 35,000 87 Level FlightAware ADS-B
Fri 05:36:38 AM 38.6090 -85.0950 49° Northeast 478 550 35,100 85 Climbing FlightAware ADS-B
Fri 05:37:13 AM 38.6600 -85.0180 50° Northeast 479 551 35,100  Level FlightAware ADS-B
Fri 05:37:45 AM 38.7070 -84.9500 48° Northeast 478 550 35,100  Level FlightAware ADS-B
Fri 05:38:35 AM 38.7720 -84.8530 49° Northeast 479 551 35,100  Level FlightAware ADS-B
Fri 05:39:11 AM 38.8320 -84.7660 48° Northeast 479 551 35,100  Level FlightAware ADS-B
Fri 05:39:48 AM 38.8780 -84.6970 49° Northeast 479 551 35,100 -79 Level FlightAware ADS-B
Fri 05:40:27 AM 38.9420 -84.6020 49° Northeast 479 551 35,000 -79 Descending FlightAware ADS-B
Fri 05:41:04 AM 38.9960 -84.5220 49° Northeast 480 552 35,000  Level FlightAware ADS-B
Fri 05:41:36 AM 39.0430 -84.4530 49° Northeast 480 552 35,000  Level FlightAware ADS-B
Fri 05:42:13 AM 39.0960 -84.3730 50° Northeast 480 552 35,000  Level FlightAware ADS-B
Fri 05:42:44 AM 39.1360 -84.3120 50° Northeast 480 552 35,000  Level FlightAware ADS-B
Fri 05:43:24 AM 39.1980 -84.2190 49° Northeast 480 552 35,000  Level FlightAware ADS-B
Fri 05:43:56 AM 39.2450 -84.1490 49° Northeast 481 554 35,000  Level FlightAware ADS-B
Fri 05:44:32 AM 39.2970 -84.0700 50° Northeast 481 554 35,000  Level FlightAware ADS-B
Fri 05:45:08 AM 39.3490 -83.9910 50° Northeast 480 552 35,000  Level FlightAware ADS-B
Fri 05:45:44 AM 39.4010 -83.9130 49° Northeast 481 554 35,000  Level FlightAware ADS-B
Fri 05:46:16 AM 39.4470 -83.8430 50° Northeast 481 554 35,000  Level FlightAware ADS-B
Fri 05:46:52 AM 39.4990 -83.7630 50° Northeast 481 554 35,000  Level FlightAware ADS-B
Fri 05:47:28 AM 39.5500 -83.6840 50° Northeast 481 554 35,000 82 Level FlightAware ADS-B
Fri 05:48:05 AM 39.6030 -83.6020 50° Northeast 481 554 35,100 87 Climbing FlightAware ADS-B
Fri 05:48:37 AM 39.6490 -83.5340 49° Northeast 481 554 35,100 -87 Level FlightAware ADS-B
Fri 05:49:14 AM 39.7020 -83.4520 50° Northeast 481 554 35,000 -85 Descending FlightAware ADS-B
Fri 05:49:48 AM 39.7510 -83.3770 50° Northeast 481 554 35,000  Level FlightAware ADS-B
Fri 05:50:24 AM 39.8030 -83.2950 50° Northeast 481 554 35,000  Level FlightAware ADS-B
Fri 05:51:00 AM 39.8540 -83.2170 50° Northeast 480 552 35,000  Level FlightAware ADS-B
Fri 05:51:32 AM 39.8990 -83.1460 50° Northeast 480 552 35,000  Level FlightAware ADS-B
Fri 05:52:08 AM 39.9510 -83.0640 50° Northeast 479 551 35,000  Level FlightAware ADS-B
Fri 05:52:45 AM 40.0020 -82.9850 50° Northeast 479 551 35,000  Level FlightAware ADS-B
Fri 05:53:16 AM 40.0470 -82.9160 50° Northeast 478 550 35,000 87 Level FlightAware ADS-B
Fri 05:53:54 AM 40.1010 -82.8290 51° Northeast 475 547 35,100  Climbing FlightAware ADS-B
Fri 05:54:30 AM 40.1510 -82.7500 50° Northeast 472 543 35,000 -88 Descending FlightAware ADS-B
Fri 05:55:02 AM 40.1960 -82.6800 50° Northeast 473 544 35,000  Level FlightAware ADS-B
Fri 05:55:37 AM 40.2440 -82.6030 51° Northeast 473 544 35,000  Level FlightAware ADS-B
Fri 05:56:13 AM 40.2960 -82.5230 50° Northeast 474 545 35,000  Level FlightAware ADS-B
Fri 05:56:45 AM 40.3390 -82.4540 51° Northeast 475 547 35,000 86 Level FlightAware ADS-B
Fri 05:57:23 AM 40.3920 -82.3670 51° Northeast 475 547 35,100 81 Climbing FlightAware ADS-B
Fri 05:57:59 AM 40.4420 -82.2870 51° Northeast 475 547 35,100  Level FlightAware ADS-B
Fri 05:58:33 AM 40.4900 -82.2100 51° Northeast 476 548 35,100  Level FlightAware ADS-B
Fri 05:59:07 AM 40.5370 -82.1340 51° Northeast 476 548 35,100  Level FlightAware ADS-B
Fri 05:59:43 AM 40.5870 -82.0540 51° Northeast 474 545 35,100 -83 Level FlightAware ADS-B
Fri 06:00:19 AM 40.6340 -81.9780 51° Northeast 474 545 35,000 -85 Descending FlightAware ADS-B
Fri 06:00:54 AM 40.6740 -81.9130 51° Northeast 474 545 35,000  Level FlightAware ADS-B
Fri 06:01:27 AM 40.7310 -81.8210 51° Northeast 473 544 35,000  Level FlightAware ADS-B
Fri 06:01:59 AM 40.7740 -81.7510 51° Northeast 472 543 35,000  Level FlightAware ADS-B
Fri 06:02:39 AM 40.8300 -81.6600 51° Northeast 472 543 35,000  Level FlightAware ADS-B
Fri 06:03:15 AM 40.8790 -81.5810 51° Northeast 472 543 35,000  Level FlightAware ADS-B
Fri 06:03:47 AM 40.9230 -81.5090 51° Northeast 473 544 35,000  Level FlightAware ADS-B
Fri 06:04:21 AM 40.9690 -81.4320 52° Northeast 477 549 35,000 83 Level FlightAware ADS-B
Fri 06:04:59 AM 41.0220 -81.3430 52° Northeast 478 550 35,100 82 Climbing FlightAware ADS-B
Fri 06:05:34 AM 41.0720 -81.2630 50° Northeast 478 550 35,100  Level FlightAware ADS-B
Fri 06:06:06 AM 41.1160 -81.1890 52° Northeast 478 550 35,100  Level FlightAware ADS-B
Fri 06:06:43 AM 41.1650 -81.1070 52° Northeast 478 550 35,100 -83 Level FlightAware ADS-B
Fri 06:07:18 AM 41.2150 -81.0250 51° Northeast 478 550 35,000 -90 Descending FlightAware ADS-B
Fri 06:07:50 AM 41.2590 -80.9510 52° Northeast 478 550 35,000  Level FlightAware ADS-B
Fri 06:08:27 AM 41.3090 -80.8660 52° Northeast 480 552 35,000  Level FlightAware ADS-B
Fri 06:09:03 AM 41.3590 -80.7820 52° Northeast 482 555 35,000  Level FlightAware ADS-B
Fri 06:09:38 AM 41.4080 -80.7000 51° Northeast 483 556 35,000 85 Level FlightAware ADS-B
Fri 06:10:14 AM 41.4560 -80.6180 52° Northeast 484 557 35,100 85 Climbing FlightAware ADS-B
Fri 06:10:49 AM 41.5060 -80.5340 52° Northeast 486 559 35,100  Level FlightAware ADS-B
Fri 06:11:03 AM 41.5250 -80.5010 52° Northeast 486 559 35,100  Level FlightAware ADS-B
Fri 06:11:57 AM 41.6000 -80.3760 51° Northeast 486 559 35,100 -66 Level FlightAware ADS-B
Fri 06:12:34 AM 41.6520 -80.2850 53° Northeast 487 560 35,000 -83 Descending FlightAware ADS-B
Fri 06:13:09 AM 41.7000 -80.2020 52° Northeast 488 562 35,000  Level FlightAware ADS-B
Fri 06:13:41 AM 41.7440 -80.1280 51° Northeast 488 562 35,000  Level FlightAware ADS-B
Fri 06:14:17 AM 41.7940 -80.0420 52° Northeast 489 563 35,000  Level FlightAware ADS-B
Fri 06:14:55 AM 41.8480 -79.9490 52° Northeast 490 564 35,000  Level FlightAware ADS-B
Fri 06:15:25 AM 41.8890 -79.8770 53° Northeast 490 564 35,000  Level FlightAware ADS-B
Fri 06:16:05 AM 41.9440 -79.7800 53° Northeast 492 566 35,000  Level FlightAware ADS-B
Fri 06:16:37 AM 41.9890 -79.7020 52° Northeast 492 566 35,000  Level FlightAware ADS-B
Fri 06:17:13 AM 42.0380 -79.6170 52° Northeast 495 570 35,000  Level FlightAware ADS-B
Fri 06:17:47 AM 42.0860 -79.5340 52° Northeast 496 571 35,000  Level FlightAware ADS-B
Fri 06:18:20 AM 42.1320 -79.4510 53° Northeast 497 572 35,000  Level FlightAware ADS-B
Fri 06:18:57 AM 42.1830 -79.3620 52° Northeast 497 572 35,000  Level FlightAware ADS-B
Fri 06:19:35 AM 42.2350 -79.2710 52° Northeast 499 574 35,000 90 Level FlightAware ADS-B
Fri 06:20:04 AM 42.2780 -79.1960 52° Northeast 501 577 35,100 87 Climbing FlightAware ADS-B
Fri 06:20:44 AM 42.3330 -79.0960 53° Northeast 502 578 35,100  Level FlightAware ADS-B
Fri 06:21:16 AM 42.3790 -79.0160 52° Northeast 504 580 35,100  Level FlightAware ADS-B
Fri 06:21:52 AM 42.4310 -78.9230 53° Northeast 505 581 35,100  Level FlightAware ADS-B
Fri 06:22:28 AM 42.4800 -78.8350 53° Northeast 504 580 35,100  Level FlightAware ADS-B
Fri 06:23:00 AM 42.5250 -78.7510 54° Northeast 504 580 35,100 -86 Level FlightAware ADS-B
Fri 06:23:38 AM 42.5790 -78.6560 52° Northeast 501 577 35,000 -81 Descending FlightAware ADS-B
Fri 06:24:14 AM 42.6290 -78.5650 53° Northeast 501 577 35,000  Level FlightAware ADS-B
Fri 06:24:46 AM 42.6730 -78.4850 53° Northeast 500 575 35,000  Level FlightAware ADS-B
Fri 06:25:22 AM 42.7230 -78.3960 53° Northeast 503 579 35,000  Level FlightAware ADS-B
Fri 06:25:56 AM 42.7700 -78.3070 54° Northeast 504 580 35,000  Level FlightAware ADS-B
Fri 06:26:30 AM 42.8190 -78.2210 52° Northeast 506 582 35,000  Level FlightAware ADS-B
Fri 06:27:08 AM 42.8700 -78.1260 54° Northeast 506 582 35,000  Level FlightAware ADS-B
Fri 06:27:42 AM 42.9180 -78.0390 53° Northeast 508 585 35,000  Level FlightAware ADS-B
Fri 06:28:18 AM 42.9670 -77.9480 54° Northeast 510 587 35,000  Level FlightAware ADS-B
Fri 06:28:54 AM 43.0180 -77.8520 54° Northeast 513 590 35,000 88 Level FlightAware ADS-B
Fri 06:29:26 AM 43.0630 -77.7680 54° Northeast 513 590 35,100 94 Climbing FlightAware ADS-B
Fri 06:29:58 AM 43.1070 -77.6870 53° Northeast 514 592 35,100  Level FlightAware ADS-B
Fri 06:30:39 AM 43.1650 -77.5770 54° Northeast 513 590 35,100 -78 Level FlightAware ADS-B
Fri 06:31:15 AM 43.2170 -77.4790 54° Northeast 516 594 35,000 -88 Descending FlightAware ADS-B
Fri 06:31:47 AM 43.2630 -77.3940 53° Northeast 519 597 35,000  Level FlightAware ADS-B
Fri 06:32:23 AM 43.3140 -77.2980 54° Northeast 518 596 35,000  Level FlightAware ADS-B
Fri 06:32:56 AM 43.3590 -77.2130 54° Northeast 516 594 35,000  Level FlightAware ADS-B
Fri 06:33:33 AM 43.4120 -77.1120 54° Northeast 517 595 35,000  Level FlightAware ADS-B
Fri 06:34:09 AM 43.4620 -77.0160 54° Northeast 519 597 35,000  Level FlightAware ADS-B
Fri 06:34:41 AM 43.5070 -76.9300 54° Northeast 521 600 35,000  Level FlightAware ADS-B
Fri 06:35:18 AM 43.5590 -76.8300 54° Northeast 521 600 35,000  Level FlightAware ADS-B
Fri 06:35:53 AM 43.6080 -76.7380 54° Northeast 522 601 35,000  Level FlightAware ADS-B
Fri 06:36:29 AM 43.6590 -76.6380 55° Northeast 523 602 35,000 -176 Level FlightAware ADS-B
Fri 06:37:01 AM 43.7040 -76.5510 54° Northeast 516 594 34,800 -441 Descending FlightAware ADS-B
Fri 06:37:37 AM 43.7530 -76.4580 54° Northeast 512 589 34,500 -667 Descending FlightAware ADS-B
Fri 06:38:13 AM 43.8030 -76.3590 55° Northeast 511 588 34,000 -771 Descending FlightAware ADS-B
Fri 06:38:47 AM 43.8480 -76.2680 56° Northeast 510 587 33,600 -686 Descending FlightAware ADS-B
Fri 06:39:23 AM 43.8970 -76.1720 55° Northeast 510 587 33,200 -740 Descending FlightAware ADS-B
Fri 06:40:00 AM 43.9520 -76.0780 51° Northeast 509 586 32,700 -794 Descending FlightAware ADS-B
Fri 06:40:31 AM 44.0090 -76.0150 38° Northeast 503 579 32,300 -716 Descending FlightAware ADS-B
Fri 06:41:07 AM 44.0770 -75.9570 31° Northeast 503 579 31,900 -730 Descending FlightAware ADS-B
Fri 06:41:45 AM 44.1550 -75.8860 33° Northeast 504 580 31,400 -771 Descending FlightAware ADS-B
Fri 06:42:17 AM 44.2160 -75.8320 32° Northeast 505 581 31,000 -706 Descending FlightAware ADS-B
Fri 06:42:53 AM 44.2890 -75.7670 33° Northeast 501 577 30,600 -706 Descending FlightAware ADS-B
Fri 06:43:25 AM 44.3480 -75.7130 33° Northeast 497 572 30,200 -706 Descending FlightAware ADS-B
Fri 06:44:01 AM 44.4190 -75.6510 32° Northeast 496 571 29,800 -771 Descending FlightAware ADS-B
Fri 06:44:35 AM 44.4840 -75.5920 33° Northeast 495 570 29,300 -822 Descending FlightAware ADS-B
Fri 06:45:14 AM 44.5610 -75.5220 33° Northeast 497 572 28,800 -740 Descending FlightAware ADS-B
Fri 06:45:48 AM 44.6250 -75.4640 33° Northeast 499 574 28,400 -892 Descending FlightAware ADS-B
Fri 06:46:28 AM 44.6990 -75.3970 33° Northeast 499 574 27,700 -1,371 Descending FlightAware ADS-B
Fri 06:46:58 AM 44.7500 -75.3300 43° Northeast 485 558 26,800 -2,250 Descending FlightAware ADS-B
Fri 06:47:32 AM 44.8010 -75.2450 50° Northeast 465 535 25,300 -2,583 Descending FlightAware ADS-B
Fri 06:48:10 AM 44.8520 -75.1580 50° Northeast 455 524 23,700 -2,432 Descending FlightAware ADS-B
Fri 06:48:46 AM 44.8970 -75.0790 51° Northeast 437 503 22,300 -2,320 Descending FlightAware ADS-B
Fri 06:49:25 AM 44.9430 -74.9970 52° Northeast 422 486 20,800 -2,240 Descending FlightAware ADS-B
Fri 06:50:01 AM 44.9860 -74.9160 53° Northeast 408 470 19,500 -1,938 Descending FlightAware ADS-B
Fri 06:50:30 AM 45.0110 -74.8560 59° Northeast 399 459 18,700 -2,143 Descending FlightAware ADS-B
Fri 06:51:11 AM 45.0540 -74.7570 58° Northeast 396 456 17,000 -2,351 Descending FlightAware ADS-B
Fri 06:51:44 AM 45.0880 -74.6840 57° Northeast 387 445 15,800 -2,060 Descending FlightAware ADS-B
Fri 06:52:18 AM 45.1200 -74.6120 58° Northeast 378 435 14,700 -1,886 Descending FlightAware ADS-B
Fri 06:52:54 AM 45.1530 -74.5370 58° Northeast 369 425 13,600 -1,808 Descending FlightAware ADS-B
Fri 06:53:31 AM 45.1850 -74.4640 58° Northeast 361 415 12,500 -1,690 Descending FlightAware ADS-B
Fri 06:54:05 AM 45.2150 -74.3960 58° Northeast 352 405 11,600 -1,254 Descending FlightAware ADS-B
Fri 06:54:38 AM 45.2420 -74.3350 58° Northeast 334 384 11,100 -1,200 Descending FlightAware ADS-B
Fri 06:54:55 AM 45.2620 -74.3100 41° Northeast 317 365 10,600 -1,667 Descending FlightAware ADS-B
Fri 06:55:14 AM 45.2870 -74.2890 31° Northeast 299 344 10,100 -1,333 Descending FlightAware ADS-B
Fri 06:55:22 AM 45.2970 -74.2840 19° North 289 333 10,000 -1,286 Descending FlightAware ADS-B
Fri 06:55:42 AM 45.3220 -74.2750 14° North 274 315 9,500 -1,650 Descending FlightAware ADS-B
Fri 06:56:02 AM 45.3460 -74.2650 16° North 266 306 8,900 -1,833 Descending FlightAware ADS-B
Fri 06:56:18 AM 45.3650 -74.2580 15° North 262 302 8,400 -2,167 Descending FlightAware ADS-B
Fri 06:56:38 AM 45.3890 -74.2490 15° North 263 303 7,600 -2,250 Descending FlightAware ADS-B
Fri 06:56:58 AM 45.4130 -74.2400 15° North 261 300 6,900 -2,045 Descending FlightAware ADS-B
Fri 06:57:22 AM 45.4410 -74.2280 17° North 259 298 6,100 -1,636 Descending FlightAware ADS-B
Fri 06:57:42 AM 45.4630 -74.2200 14° North 244 281 5,700 -1,500 Descending FlightAware ADS-B
Fri 06:58:02 AM 45.4840 -74.2120 15° North 233 268 5,100 -2,108 Descending FlightAware ADS-B
Fri 06:58:19 AM 45.5000 -74.2060 15° North 233 268 4,400 -1,950 Descending FlightAware ADS-B
Fri 06:58:42 AM 45.5240 -74.1980 13° North 213 245 3,800 -1,245 Descending FlightAware ADS-B
Fri 06:59:12 AM 45.5510 -74.1880 15° North 198 228 3,300 -1,119 Descending FlightAware ADS-B
Fri 06:59:41 AM 45.5710 -74.1650 39° Northeast 183 211 2,700 -1,000 Descending FlightAware ADS-B
Fri 07:00:00 AM 45.5820 -74.1470 49° Northeast 183 211 2,500 -769 Descending FlightAware ADS-B
Fri 07:00:20 AM 45.5940 -74.1300 45° Northeast 181 208 2,200 -923 Descending FlightAware ADS-B
Fri 07:00:52 AM 45.6120 -74.1050 44° Northeast 164 189 1,700 -894 Descending FlightAware ADS-B
Fri 07:01:07 AM 45.6200 -74.0940 44° Northeast 151 174 1,500 -750 Descending FlightAware ADS-B
Fri 07:01:32 AM 45.6310 -74.0770 47° Northeast 132 152 1,200 -750 Descending FlightAware ADS-B
Fri 07:01:47 AM 45.6380 -74.0680 42° Northeast 130 150 1,000 -686 Descending FlightAware ADS-B
Fri 07:02:07 AM 45.6460 -74.0560 46° Northeast 130 150 800 -750 Descending FlightAware ADS-B
Fri 07:02:27 AM 45.6550 -74.0440 43° Northeast 130 150 500 -750 Descending FlightAware ADS-B
Fri 07:02:47 AM 45.6640 -74.0310 45° Northeast 136 157 300 -321 Descending FlightAware ADS-B
Fri 07:03:23 AM 45.6780 -74.0120 43° Northeast 141 162 200 -56 Descending FlightAware ADS-B
Fri 07:04:34 AM 45.6833 -74.0000 43° Northeast 20 23 200  Level Montreal Center
Fri 07:05:34 AM 45.6833 -74.0000 43° Northeast 10 12 200  Level Montreal Center
Fri 07:06:34 AM 45.6833 -74.0000 43° Northeast 20 23 200  Level Montreal Center

Login

Don't have an account? Register now (free) for customized features, flight alerts, and more!